Time;durP1;ratioP1;P1;durP2;ratioP2;P2;SDS_P1;SDS_P2;PMS_P1;PMS_P2;Temp;Humidity;BMP_temperature;BMP_pressure;BME280_temperature;BME280_humidity;BME280_pressure;Samples;Min_cycle;Max_cycle;Signal;HPM_P1;HPM_P2
2022/10/16 00:00:52;;;;;;;28.95;25.98;;;17.40;99.90;;;;;;4592020;19;20010;-27
2022/10/16 00:02:43;;;;;;;29.30;26.30;;;17.40;99.90;;;;;;4593513;19;20010;-27
2022/10/16 00:04:15;;;;;;;30.55;26.42;;;17.40;99.90;;;;;;4592510;19;20460;-27
2022/10/16 00:05:46;;;;;;;29.70;26.67;;;17.40;99.90;;;;;;4592591;19;20371;-27
2022/10/16 00:07:17;;;;;;;30.05;26.73;;;17.40;99.90;;;;;;4593151;19;20023;-27
2022/10/16 00:08:49;;;;;;;29.35;26.35;;;17.40;99.90;;;;;;4592271;19;20019;-27
2022/10/16 00:10:20;;;;;;;31.00;27.70;;;17.30;99.90;;;;;;4592446;19;20011;-27
2022/10/16 00:11:51;;;;;;;30.77;27.60;;;17.40;99.90;;;;;;4592666;19;20073;-27
2022/10/16 00:13:22;;;;;;;30.42;27.23;;;17.40;99.90;;;;;;4591864;19;20023;-27
2022/10/16 00:14:53;;;;;;;30.33;27.02;;;17.30;99.90;;;;;;4591760;19;20357;-27
2022/10/16 00:16:25;;;;;;;30.00;26.90;;;17.30;99.90;;;;;;4592623;19;20018;-27
2022/10/16 00:17:56;;;;;;;28.95;25.85;;;17.30;99.90;;;;;;4590483;19;20090;-27
2022/10/16 00:19:27;;;;;;;31.20;27.95;;;17.30;99.90;;;;;;4593161;19;20011;-27
2022/10/16 00:21:05;;;;;;;29.50;26.42;;;17.30;99.90;;;;;;4591303;19;20018;-27
2022/10/16 00:22:37;;;;;;;29.52;26.40;;;17.30;99.90;;;;;;4591988;19;20056;-27
2022/10/16 00:24:08;;;;;;;31.88;28.40;;;17.30;99.90;;;;;;4591394;19;20086;-27
2022/10/16 00:25:39;;;;;;;30.70;27.40;;;17.30;99.90;;;;;;4591185;19;20028;-27
2022/10/16 00:27:10;;;;;;;31.35;28.02;;;17.30;99.90;;;;;;4593173;19;20021;-27
2022/10/16 00:28:42;;;;;;;31.05;27.85;;;17.30;99.90;;;;;;4592046;19;20541;-27
2022/10/16 00:30:13;;;;;;;28.83;25.92;;;17.30;99.90;;;;;;4591909;19;20077;-27
2022/10/16 00:31:44;;;;;;;29.95;27.00;;;17.30;99.90;;;;;;4589702;19;20040;-26
2022/10/16 00:33:15;;;;;;;29.70;26.60;;;17.30;99.90;;;;;;4592206;19;20018;-27
2022/10/16 00:34:54;;;;;;;31.10;27.83;;;17.30;99.90;;;;;;4592290;19;20031;-27
2022/10/16 00:36:25;;;;;;;28.23;25.23;;;17.30;99.90;;;;;;4591800;19;20018;-27
2022/10/16 00:37:56;;;;;;;30.63;27.45;;;17.30;99.90;;;;;;4592801;19;20019;-27
2022/10/16 00:39:28;;;;;;;28.92;25.85;;;17.30;99.90;;;;;;4591858;19;20015;-27
2022/10/16 00:40:59;;;;;;;28.25;25.30;;;17.30;99.90;;;;;;4593558;19;20039;-27
2022/10/16 00:42:30;;;;;;;29.42;25.48;;;17.30;99.90;;;;;;4591894;19;20022;-27
2022/10/16 00:44:04;;;;;;;28.23;25.35;;;17.30;99.90;;;;;;4592436;19;20017;-27
2022/10/16 00:45:35;;;;;;;29.40;26.17;;;17.30;99.90;;;;;;4590108;19;20022;-27
2022/10/16 00:47:33;;;;;;;29.45;26.35;;;17.30;99.90;;;;;;4591415;19;20473;-27
2022/10/16 00:49:15;;;;;;;29.13;26.13;;;17.30;99.90;;;;;;4589819;19;20402;-27
2022/10/16 00:50:46;;;;;;;29.92;26.77;;;17.30;99.90;;;;;;4589236;19;20446;-27
2022/10/16 00:52:17;;;;;;;29.35;26.30;;;17.30;99.90;;;;;;4590767;19;20002;-27
2022/10/16 00:53:48;;;;;;;29.55;26.50;;;17.30;99.90;;;;;;4589970;19;20026;-27
2022/10/16 00:55:20;;;;;;;29.02;25.92;;;17.30;99.90;;;;;;4588529;19;20019;-27
2022/10/16 00:56:51;;;;;;;29.40;26.50;;;17.30;99.90;;;;;;4589073;19;20034;-27
2022/10/16 00:58:22;;;;;;;29.70;26.60;;;17.30;99.90;;;;;;4589379;19;20021;-26
2022/10/16 00:59:53;;;;;;;30.63;27.02;;;17.30;99.90;;;;;;4588512;19;20014;-27
2022/10/16 01:01:25;;;;;;;27.73;24.90;;;17.30;99.90;;;;;;4588105;19;20496;-27
2022/10/16 01:02:58;;;;;;;31.40;26.65;;;17.30;99.90;;;;;;4588085;19;20047;-27
2022/10/16 01:04:34;;;;;;;28.48;25.55;;;17.30;99.90;;;;;;4589592;19;20010;-27
2022/10/16 01:06:16;;;;;;;28.38;25.50;;;17.30;99.90;;;;;;4589505;19;20017;-27
2022/10/16 01:07:56;;;;;;;29.05;25.98;;;17.30;99.90;;;;;;4589818;19;20022;-26
2022/10/16 01:09:53;;;;;;;26.52;23.80;;;17.20;99.90;;;;;;4589539;19;20025;-27
2022/10/16 01:11:36;;;;;;;30.50;27.23;;;17.20;99.90;;;;;;4589903;19;20015;-27
2022/10/16 01:13:18;;;;;;;30.17;27.00;;;17.20;99.90;;;;;;4587958;19;20017;-26
2022/10/16 01:14:54;;;;;;;27.70;24.80;;;17.20;99.90;;;;;;4590206;19;20048;-27
2022/10/16 01:16:33;;;;;;;28.42;25.10;;;17.20;99.90;;;;;;4589711;19;20643;-27
2022/10/16 01:18:38;;;;;;;28.42;25.35;;;17.20;99.90;;;;;;4588331;19;20077;-27
2022/10/16 01:20:31;;;;;;;28.23;25.30;;;17.20;99.90;;;;;;4589414;19;20031;-27
2022/10/16 01:22:03;;;;;;;28.23;25.33;;;17.20;99.90;;;;;;4586994;19;20015;-27
2022/10/16 01:23:34;;;;;;;33.28;28.23;;;17.20;99.90;;;;;;4589446;19;20034;-27
2022/10/16 01:25:08;;;;;;;29.85;26.55;;;17.20;99.90;;;;;;4588318;19;20015;-27
2022/10/16 01:26:42;;;;;;;28.35;25.42;;;17.20;99.90;;;;;;4589578;19;20027;-27
2022/10/16 01:28:13;;;;;;;29.00;26.00;;;17.20;99.90;;;;;;4588615;19;20026;-27
2022/10/16 01:29:50;;;;;;;30.77;27.50;;;17.20;99.90;;;;;;4588818;19;20074;-27
2022/10/16 01:31:24;;;;;;;29.17;25.92;;;17.20;99.90;;;;;;4589820;19;20373;-27
2022/10/16 01:32:57;;;;;;;28.95;25.98;;;17.20;99.90;;;;;;4588568;19;20044;-27
2022/10/16 01:34:41;;;;;;;28.48;25.48;;;17.20;99.90;;;;;;4588724;19;20469;-27
2022/10/16 01:36:15;;;;;;;29.65;25.63;;;17.20;99.90;;;;;;4588426;19;20043;-27
2022/10/16 01:37:52;;;;;;;28.40;25.10;;;17.20;99.90;;;;;;4587106;19;20040;-27
2022/10/16 01:39:25;;;;;;;27.85;25.00;;;17.20;99.90;;;;;;4589500;19;20499;-27
2022/10/16 01:41:03;;;;;;;27.38;24.58;;;17.20;99.90;;;;;;4588829;19;20010;-27
2022/10/16 01:42:36;;;;;;;27.88;25.08;;;17.20;99.90;;;;;;4587364;19;20022;-27
2022/10/16 01:44:13;;;;;;;28.75;25.65;;;17.10;99.90;;;;;;4588832;19;20413;-27
2022/10/16 01:45:44;;;;;;;28.98;25.83;;;17.20;99.90;;;;;;4587629;19;20053;-27
2022/10/16 01:47:15;;;;;;;;;;;17.20;99.90;;;;;;4589977;19;20019;-27
2022/10/16 01:48:48;;;;;;;29.50;26.30;;;17.20;99.90;;;;;;4588263;19;19956;-27
2022/10/16 01:50:19;;;;;;;27.73;24.80;;;17.20;99.90;;;;;;4588769;19;20421;-27
2022/10/16 01:51:52;;;;;;;31.88;27.75;;;17.20;99.90;;;;;;4588539;19;20038;-27
2022/10/16 01:53:24;;;;;;;29.00;25.90;;;17.20;99.90;;;;;;4587551;19;20058;-27
2022/10/16 01:54:55;;;;;;;28.30;25.35;;;17.20;99.90;;;;;;4588121;19;20014;-27
2022/10/16 01:56:26;;;;;;;28.58;25.50;;;17.20;99.90;;;;;;4588063;19;20018;-27
2022/10/16 01:57:57;;;;;;;29.27;25.80;;;17.20;99.90;;;;;;4590259;19;20034;-27
2022/10/16 01:59:29;;;;;;;27.58;24.67;;;17.20;99.90;;;;;;4589295;19;20018;-26
2022/10/16 02:01:01;;;;;;;28.30;25.45;;;17.20;99.90;;;;;;4589961;19;20018;-27
2022/10/16 02:02:32;;;;;;;;;;;17.20;99.90;;;;;;4591376;19;20015;-27
2022/10/16 02:04:33;;;;;;;26.88;23.98;;;17.20;99.90;;;;;;4590402;19;20392;-27
2022/10/16 02:06:04;;;;;;;28.75;25.77;;;17.20;99.90;;;;;;4590168;19;20358;-26
2022/10/16 02:07:35;;;;;;;28.83;25.83;;;17.20;99.90;;;;;;4590218;19;20024;-27
2022/10/16 02:09:06;;;;;;;28.58;25.58;;;17.20;99.90;;;;;;4589846;19;20014;-27
2022/10/16 02:10:37;;;;;;;28.73;25.52;;;17.20;99.90;;;;;;4589191;19;20030;-27
2022/10/16 02:12:21;;;;;;;27.40;24.45;;;17.20;99.90;;;;;;4588461;19;20015;-27
2022/10/16 02:14:00;;;;;;;26.55;23.65;;;17.20;99.90;;;;;;4590027;19;20010;-27
2022/10/16 02:15:31;;;;;;;26.95;24.15;;;17.20;99.90;;;;;;4588579;19;20032;-26
2022/10/16 02:17:11;;;;;;;26.45;23.70;;;17.20;99.90;;;;;;4590023;19;20337;-27
2022/10/16 02:18:42;;;;;;;27.58;24.75;;;17.20;99.90;;;;;;4588472;19;20023;-27
2022/10/16 02:20:13;;;;;;;27.25;24.23;;;17.20;99.90;;;;;;4588781;19;20007;-27
2022/10/16 02:21:55;;;;;;;29.55;24.98;;;17.20;99.90;;;;;;4589173;19;20030;-27
2022/10/16 02:23:57;;;;;;;26.08;23.38;;;17.20;99.90;;;;;;4588754;19;20552;-27
2022/10/16 02:25:36;;;;;;;27.23;24.30;;;17.20;99.90;;;;;;4588912;19;20018;-27
2022/10/16 02:27:13;;;;;;;25.65;22.73;;;17.20;99.90;;;;;;4589416;19;20011;-27
2022/10/16 02:28:46;;;;;;;25.08;22.48;;;17.20;99.90;;;;;;4588050;19;20035;-27
2022/10/16 02:30:25;;;;;;;26.48;23.85;;;17.20;99.90;;;;;;4589881;19;20065;-28
2022/10/16 02:31:59;;;;;;;25.63;23.02;;;17.20;99.90;;;;;;4588661;19;20034;-27
2022/10/16 02:33:30;;;;;;;24.85;22.23;;;17.20;99.90;;;;;;4589902;19;20010;-28
2022/10/16 02:35:02;;;;;;;26.48;23.40;;;17.20;99.90;;;;;;4588865;19;20019;-28
2022/10/16 02:36:33;;;;;;;26.83;24.02;;;17.20;99.90;;;;;;4587823;19;20018;-28
2022/10/16 02:38:04;;;;;;;26.00;23.23;;;17.20;99.90;;;;;;4589649;19;20496;-28
2022/10/16 02:39:35;;;;;;;24.63;22.13;;;17.20;99.90;;;;;;4588264;19;20023;-27
2022/10/16 02:41:07;;;;;;;24.92;22.40;;;17.20;99.90;;;;;;4589765;19;20319;-28
2022/10/16 02:42:38;;;;;;;25.48;22.77;;;17.20;99.90;;;;;;4589103;19;20010;-27
2022/10/16 02:44:09;;;;;;;;;;;17.30;99.90;;;;;;4591152;19;20394;-27
2022/10/16 02:45:41;;;;;;;26.05;23.08;;;17.30;99.90;;;;;;4588388;19;19990;-29
2022/10/16 02:47:12;;;;;;;25.15;22.65;;;17.30;99.90;;;;;;4590375;19;20020;-26
2022/10/16 02:48:43;;;;;;;24.80;22.23;;;17.40;99.90;;;;;;4589835;19;20042;-27
2022/10/16 02:50:14;;;;;;;22.73;20.38;;;17.40;99.90;;;;;;4589990;19;20041;-29
2022/10/16 02:51:46;;;;;;;;;;;17.40;99.90;;;;;;4589280;19;20345;-29
2022/10/16 02:53:17;;;;;;;22.65;20.27;;;17.50;99.90;;;;;;4588204;19;19919;-26
2022/10/16 02:54:48;;;;;;;23.40;20.90;;;17.40;99.90;;;;;;4589175;19;20064;-26
2022/10/16 02:56:19;;;;;;;23.33;20.67;;;17.50;99.90;;;;;;4589254;19;20015;-27
2022/10/16 02:57:50;;;;;;;22.35;19.98;;;17.50;99.90;;;;;;4589846;19;20420;-26
2022/10/16 02:59:21;;;;;;;22.27;19.92;;;17.50;99.90;;;;;;4589092;19;20014;-26
2022/10/16 03:00:52;;;;;;;22.67;19.95;;;17.50;99.90;;;;;;4590944;19;20009;-27
2022/10/16 03:02:24;;;;;;;21.83;19.55;;;17.50;99.90;;;;;;4588260;19;20082;-27
2022/10/16 03:03:55;;;;;;;21.48;19.20;;;17.50;99.90;;;;;;4588186;19;20010;-26
2022/10/16 03:05:26;;;;;;;21.63;19.33;;;17.50;99.90;;;;;;4587994;19;20018;-27
2022/10/16 03:06:57;;;;;;;22.17;19.92;;;17.50;99.90;;;;;;4588016;19;20369;-27
2022/10/16 03:08:29;;;;;;;21.33;19.15;;;17.50;99.90;;;;;;4588522;19;20018;-27
2022/10/16 03:10:00;;;;;;;21.15;18.95;;;17.50;99.90;;;;;;4587281;19;20011;-27
2022/10/16 03:11:32;;;;;;;20.50;18.30;;;17.50;99.90;;;;;;4589958;19;20017;-26
2022/10/16 03:13:03;;;;;;;20.02;17.83;;;17.50;99.90;;;;;;4586214;19;20043;-27
2022/10/16 03:14:34;;;;;;;21.35;19.20;;;17.50;99.90;;;;;;4587509;19;20086;-27
2022/10/16 03:16:05;;;;;;;20.58;17.63;;;17.50;99.90;;;;;;4588150;19;20022;-27
2022/10/16 03:17:37;;;;;;;19.90;17.90;;;17.40;99.90;;;;;;4590434;19;20025;-26
2022/10/16 03:19:08;;;;;;;19.83;17.65;;;17.50;99.90;;;;;;4589509;19;20018;-27
2022/10/16 03:20:39;;;;;;;22.00;19.70;;;17.40;99.90;;;;;;4588554;19;20011;-28
2022/10/16 03:22:11;;;;;;;21.38;18.95;;;17.40;99.90;;;;;;4589446;19;20021;-26
2022/10/16 03:23:43;;;;;;;21.80;18.35;;;17.40;99.90;;;;;;4590164;19;20018;-27
2022/10/16 03:25:14;;;;;;;20.60;18.45;;;17.40;99.90;;;;;;4593017;19;20046;-27
2022/10/16 03:26:45;;;;;;;19.10;17.10;;;17.40;99.90;;;;;;4593775;19;20066;-27
2022/10/16 03:28:16;;;;;;;18.85;16.95;;;17.40;99.90;;;;;;4594456;19;20057;-27
2022/10/16 03:29:47;;;;;;;18.48;16.65;;;17.40;99.90;;;;;;4594581;19;20014;-27
2022/10/16 03:31:18;;;;;;;18.48;16.58;;;17.40;99.90;;;;;;4592843;19;20018;-27
2022/10/16 03:32:53;;;;;;;17.98;15.98;;;17.40;99.90;;;;;;4594180;19;20010;-27
2022/10/16 03:34:25;;;;;;;18.40;16.45;;;17.40;99.90;;;;;;4593746;19;20014;-26
2022/10/16 03:35:56;;;;;;;18.45;16.58;;;17.40;99.90;;;;;;4593992;19;20613;-26
2022/10/16 03:37:27;;;;;;;19.85;16.08;;;17.40;99.90;;;;;;4592988;19;20043;-27
2022/10/16 03:38:58;;;;;;;18.58;16.70;;;17.40;99.90;;;;;;4592718;19;20017;-27
2022/10/16 03:40:31;;;;;;;19.30;16.98;;;17.40;99.90;;;;;;4594874;19;20015;-27
2022/10/16 03:42:03;;;;;;;17.80;15.88;;;17.40;99.90;;;;;;4593226;19;20030;-27
2022/10/16 03:43:34;;;;;;;17.02;15.25;;;17.40;99.90;;;;;;4594213;19;20039;-27
2022/10/16 03:45:05;;;;;;;17.70;15.88;;;17.40;99.90;;;;;;4591989;19;20030;-27
2022/10/16 03:46:37;;;;;;;17.83;15.00;;;17.30;99.90;;;;;;4594271;19;20021;-26
2022/10/16 03:48:08;;;;;;;17.05;15.43;;;17.40;99.90;;;;;;4592652;19;20043;-26
2022/10/16 03:49:39;;;;;;;16.15;14.45;;;17.40;99.90;;;;;;4592875;19;20479;-27
2022/10/16 03:51:10;;;;;;;17.02;14.95;;;17.40;99.90;;;;;;4593006;19;20025;-27
2022/10/16 03:52:41;;;;;;;16.25;14.57;;;17.40;99.90;;;;;;4593050;19;20014;-26
2022/10/16 03:54:13;;;;;;;16.23;14.63;;;17.40;99.90;;;;;;4591767;19;20018;-27
2022/10/16 03:55:44;;;;;;;17.85;15.98;;;17.30;99.90;;;;;;4589507;19;20034;-27
2022/10/16 03:57:15;;;;;;;16.88;15.07;;;17.30;99.90;;;;;;4592001;19;20011;-26
2022/10/16 03:58:46;;;;;;;16.80;15.18;;;17.30;99.90;;;;;;4591408;19;20015;-27
2022/10/16 04:00:17;;;;;;;16.63;14.93;;;17.30;99.90;;;;;;4591314;19;20027;-27
2022/10/16 04:01:48;;;;;;;16.88;15.07;;;17.30;99.90;;;;;;4591205;19;20539;-27
2022/10/16 04:03:21;;;;;;;16.90;15.15;;;17.30;99.90;;;;;;4592429;19;20362;-27
2022/10/16 04:04:52;;;;;;;16.77;14.95;;;17.30;99.90;;;;;;4590300;19;20006;-27
2022/10/16 04:06:23;;;;;;;16.55;13.95;;;17.30;99.90;;;;;;4589071;19;20018;-27
2022/10/16 04:07:54;;;;;;;16.33;14.73;;;17.30;99.90;;;;;;4591996;19;20017;-27
2022/10/16 04:09:26;;;;;;;15.82;14.02;;;17.30;99.90;;;;;;4590967;19;20015;-27
2022/10/16 04:10:57;;;;;;;15.45;13.85;;;17.30;99.90;;;;;;4592362;19;20018;-27
2022/10/16 04:12:28;;;;;;;15.10;13.32;;;17.30;99.90;;;;;;4590280;19;20021;-26
2022/10/16 04:14:00;;;;;;;15.95;14.25;;;17.30;99.90;;;;;;4591966;19;20031;-27
2022/10/16 04:15:31;;;;;;;15.85;14.18;;;17.30;99.90;;;;;;4590912;19;20022;-27
2022/10/16 04:17:02;;;;;;;16.10;14.38;;;17.30;99.90;;;;;;4588674;19;20019;-27
2022/10/16 04:18:33;;;;;;;14.55;13.05;;;17.30;99.90;;;;;;4590378;19;20109;-27
2022/10/16 04:20:05;;;;;;;15.20;13.70;;;17.30;99.90;;;;;;4591790;19;20047;-27
2022/10/16 04:21:36;;;;;;;14.30;12.95;;;17.30;99.90;;;;;;4590954;19;20018;-27
2022/10/16 04:23:08;;;;;;;15.73;13.88;;;17.30;99.90;;;;;;4589878;19;20018;-27
2022/10/16 04:24:39;;;;;;;16.05;13.70;;;17.30;99.90;;;;;;4590142;19;20015;-26
2022/10/16 04:26:13;;;;;;;14.52;13.13;;;17.30;99.90;;;;;;4590684;19;20011;-27
2022/10/16 04:27:45;;;;;;;14.23;12.65;;;17.30;99.90;;;;;;4589102;19;20406;-27
2022/10/16 04:29:16;;;;;;;14.82;12.43;;;17.30;99.90;;;;;;4591779;19;20104;-27
2022/10/16 04:30:47;;;;;;;14.93;13.43;;;17.30;99.90;;;;;;4590060;19;20025;-26
2022/10/16 04:32:19;;;;;;;14.10;12.68;;;17.30;99.90;;;;;;4589234;19;20497;-27
2022/10/16 04:33:50;;;;;;;14.13;12.50;;;17.30;99.90;;;;;;4590664;19;20047;-27
2022/10/16 04:35:22;;;;;;;14.48;13.02;;;17.30;99.90;;;;;;4590761;19;20011;-27
2022/10/16 04:36:53;;;;;;;13.35;11.95;;;17.30;99.90;;;;;;4590966;19;20082;-27
2022/10/16 04:38:24;;;;;;;14.55;12.88;;;17.30;99.90;;;;;;4589187;19;20021;-27
2022/10/16 04:39:55;;;;;;;14.25;12.73;;;17.30;99.90;;;;;;4590971;19;20010;-27
2022/10/16 04:41:26;;;;;;;13.90;12.27;;;17.30;99.90;;;;;;4589605;19;20022;-27
2022/10/16 04:42:57;;;;;;;13.50;12.10;;;17.30;99.90;;;;;;4590237;19;20089;-27
2022/10/16 04:44:28;;;;;;;13.27;11.82;;;17.30;99.90;;;;;;4589336;19;20015;-27
2022/10/16 04:46:00;;;;;;;13.30;11.90;;;17.30;99.90;;;;;;4589346;19;20086;-27
2022/10/16 04:47:32;;;;;;;15.23;13.73;;;17.30;99.90;;;;;;4591422;19;20033;-27
2022/10/16 04:49:03;;;;;;;16.48;14.82;;;16.20;99.90;;;;;;4590324;19;20022;-27
2022/10/16 04:50:34;;;;;;;17.40;15.73;;;15.60;99.90;;;;;;4590341;19;20014;-26
2022/10/16 04:52:05;;;;;;;17.48;15.68;;;15.40;99.90;;;;;;4590968;19;20482;-27
2022/10/16 04:53:36;;;;;;;16.65;14.98;;;15.30;99.90;;;;;;4590472;19;20394;-27
2022/10/16 04:55:08;;;;;;;17.85;16.05;;;15.30;99.90;;;;;;4438625;19;2974068;-27
2022/10/16 04:56:50;;;;;;;17.73;15.93;;;15.30;99.90;;;;;;4591085;19;20022;-27
2022/10/16 04:58:21;;;;;;;16.90;15.20;;;15.30;99.90;;;;;;4590767;19;20019;-28
2022/10/16 04:59:53;;;;;;;17.77;16.00;;;15.30;99.90;;;;;;4592484;19;20018;-28
2022/10/16 05:01:26;;;;;;;16.17;14.57;;;15.30;99.90;;;;;;4591128;19;20019;-27
2022/10/16 05:03:00;;;;;;;16.42;14.82;;;15.30;99.90;;;;;;4592381;19;20011;-27
2022/10/16 05:04:32;;;;;;;16.30;14.68;;;15.30;99.90;;;;;;4591092;19;20107;-28
2022/10/16 05:06:05;;;;;;;16.58;14.77;;;15.30;99.90;;;;;;4590339;19;20081;-27
2022/10/16 05:07:37;;;;;;;14.90;13.43;;;15.30;99.90;;;;;;4591613;19;20341;-27
2022/10/16 05:09:09;;;;;;;15.40;13.82;;;15.30;99.90;;;;;;4591427;19;20365;-27
2022/10/16 05:10:41;;;;;;;15.90;14.30;;;15.30;99.90;;;;;;4592441;19;20022;-27
2022/10/16 05:12:12;;;;;;;;;;;15.30;99.90;;;;;;4591780;19;20011;-27
2022/10/16 05:13:43;;;;;;;15.98;13.27;;;15.30;99.90;;;;;;4590845;19;19933;-27
2022/10/16 05:15:15;;;;;;;14.38;12.90;;;15.30;99.90;;;;;;4589111;19;20014;-27
2022/10/16 05:16:47;;;;;;;13.95;12.50;;;15.40;99.90;;;;;;4591201;19;20036;-28
2022/10/16 05:18:19;;;;;;;12.50;11.20;;;15.70;99.90;;;;;;4592004;19;20033;-28
2022/10/16 05:19:50;;;;;;;13.23;11.30;;;15.90;99.90;;;;;;4591546;19;20017;-27
2022/10/16 05:21:21;;;;;;;14.13;12.10;;;16.00;99.90;;;;;;4591159;19;20018;-28
2022/10/16 05:22:52;;;;;;;14.50;13.00;;;16.20;99.90;;;;;;4590343;19;20021;-27
2022/10/16 05:24:23;;;;;;;14.20;12.23;;;16.30;99.90;;;;;;4590647;19;20026;-27
2022/10/16 05:25:58;;;;;;;11.98;10.77;;;16.40;99.90;;;;;;4589548;19;20027;-28
2022/10/16 05:27:29;;;;;;;13.10;11.05;;;16.50;99.90;;;;;;4590348;19;20100;-28
2022/10/16 05:29:00;;;;;;;12.48;11.18;;;16.50;99.90;;;;;;4589872;19;20035;-28
2022/10/16 05:30:32;;;;;;;12.07;10.77;;;16.60;99.90;;;;;;4591404;19;20014;-28
2022/10/16 05:32:03;;;;;;;12.77;11.32;;;16.60;99.90;;;;;;4590757;19;20022;-28
2022/10/16 05:33:34;;;;;;;11.35;10.18;;;16.70;99.90;;;;;;4590365;19;20022;-28
2022/10/16 05:35:06;;;;;;;;;;;16.70;99.90;;;;;;4591469;19;20514;-28
2022/10/16 05:36:37;;;;;;;12.93;10.35;;;16.70;99.90;;;;;;4588081;19;20637;-28
2022/10/16 05:38:08;;;;;;;11.65;10.25;;;16.70;99.90;;;;;;4590996;19;20037;-27
2022/10/16 05:39:39;;;;;;;10.82;9.65;;;16.80;99.90;;;;;;4590434;19;20025;-27
2022/10/16 05:41:10;;;;;;;11.18;9.82;;;16.80;99.90;;;;;;4591367;19;20025;-28
2022/10/16 05:42:41;;;;;;;10.35;9.30;;;16.80;99.90;;;;;;4590156;19;20046;-28
2022/10/16 05:44:13;;;;;;;10.70;9.60;;;16.90;99.90;;;;;;4590041;19;20006;-27
2022/10/16 05:45:44;;;;;;;11.15;8.95;;;16.90;99.90;;;;;;4588657;19;20015;-27
2022/10/16 05:47:15;;;;;;;10.13;9.13;;;16.90;99.90;;;;;;4591014;19;20010;-28
2022/10/16 05:48:46;;;;;;;10.48;8.82;;;16.90;99.90;;;;;;4590854;19;20358;-28
2022/10/16 05:50:17;;;;;;;11.27;9.43;;;16.90;99.90;;;;;;4590509;19;20356;-28
2022/10/16 05:51:49;;;;;;;11.43;9.23;;;17.00;99.90;;;;;;4590315;19;20028;-28
2022/10/16 05:53:25;;;;;;;10.25;9.13;;;17.00;99.90;;;;;;4588743;19;20017;-27
2022/10/16 05:54:56;;;;;;;10.27;9.18;;;17.00;99.90;;;;;;4589488;19;20117;-28
2022/10/16 05:56:27;;;;;;;9.73;8.73;;;17.00;99.90;;;;;;4587995;19;20090;-28
2022/10/16 05:57:58;;;;;;;9.85;8.88;;;17.10;99.90;;;;;;4590131;19;20022;-27
2022/10/16 05:59:29;;;;;;;8.70;7.72;;;17.10;99.90;;;;;;4589523;19;20022;-28
2022/10/16 06:01:02;;;;;;;8.70;7.05;;;17.20;99.90;;;;;;4589896;19;20039;-28
2022/10/16 06:02:33;;;;;;;8.18;7.20;;;17.20;99.90;;;;;;4588120;19;20548;-28
2022/10/16 06:04:04;;;;;;;8.35;6.68;;;17.30;99.90;;;;;;4589026;19;20103;-27
2022/10/16 06:05:35;;;;;;;7.95;7.15;;;17.30;99.90;;;;;;4588616;19;20014;-28
2022/10/16 06:07:06;;;;;;;8.70;7.72;;;17.30;99.90;;;;;;4588578;19;20367;-28
2022/10/16 06:08:38;;;;;;;9.77;8.18;;;17.40;99.90;;;;;;4589735;19;20014;-28
2022/10/16 06:10:09;;;;;;;;;;;17.40;99.90;;;;;;4589979;19;20015;-28
2022/10/16 06:11:42;;;;;;;8.18;7.35;;;17.50;99.90;;;;;;4590241;19;19946;-28
2022/10/16 06:13:13;;;;;;;7.47;6.75;;;17.60;99.90;;;;;;4589668;19;20010;-27
2022/10/16 06:14:46;;;;;;;8.57;7.68;;;17.70;99.90;;;;;;4591212;19;20739;-28
2022/10/16 06:16:18;;;;;;;8.45;6.95;;;17.80;99.90;;;;;;4588961;19;20077;-27
2022/10/16 06:17:49;;;;;;;7.90;7.07;;;17.80;99.90;;;;;;4588618;19;20345;-28
2022/10/16 06:19:20;;;;;;;9.02;7.60;;;17.80;99.90;;;;;;4590567;19;20484;-28
2022/10/16 06:20:51;;;;;;;8.52;7.50;;;17.90;99.90;;;;;;4586771;19;20028;-28
2022/10/16 06:22:22;;;;;;;7.47;6.72;;;17.90;99.90;;;;;;4590815;19;20006;-28
2022/10/16 06:23:54;;;;;;;7.65;6.85;;;17.90;99.90;;;;;;4588375;19;20028;-28
2022/10/16 06:25:25;;;;;;;7.68;6.88;;;17.90;99.90;;;;;;4588483;19;20014;-28
2022/10/16 06:26:56;;;;;;;10.13;7.22;;;17.90;99.90;;;;;;4589908;19;20022;-28
2022/10/16 06:28:30;;;;;;;8.07;6.63;;;18.00;99.90;;;;;;4587532;19;20056;-27
2022/10/16 06:30:03;;;;;;;7.15;6.45;;;18.00;99.90;;;;;;4590058;19;20014;-27
2022/10/16 06:31:34;;;;;;;7.90;6.90;;;17.90;99.90;;;;;;4589277;19;20026;-27
2022/10/16 06:33:05;;;;;;;8.02;6.60;;;17.90;99.90;;;;;;4590513;19;20014;-27
2022/10/16 06:34:37;;;;;;;8.63;6.65;;;17.90;99.90;;;;;;4589508;19;20019;-27
2022/10/16 06:36:15;;;;;;;7.95;6.65;;;17.90;99.90;;;;;;4590423;19;20010;-27
2022/10/16 06:37:46;;;;;;;8.57;6.93;;;17.90;99.90;;;;;;4587745;19;20014;-27
2022/10/16 06:39:17;;;;;;;7.85;6.47;;;17.90;99.90;;;;;;4588768;19;20014;-27
2022/10/16 06:40:48;;;;;;;8.73;6.97;;;17.90;99.90;;;;;;4589095;19;20086;-27
2022/10/16 06:42:19;;;;;;;8.52;6.95;;;17.80;99.90;;;;;;4586496;19;20019;-26
2022/10/16 06:43:52;;;;;;;7.45;6.65;;;17.90;99.90;;;;;;4588724;19;20108;-28
2022/10/16 06:45:23;;;;;;;7.97;6.93;;;17.90;99.90;;;;;;4587255;19;20022;-26
2022/10/16 06:46:54;;;;;;;7.38;6.10;;;17.90;99.90;;;;;;4589830;19;20070;-26
2022/10/16 06:48:25;;;;;;;8.23;6.35;;;17.90;99.90;;;;;;4589199;19;20022;-27
2022/10/16 06:49:56;;;;;;;;;;;17.90;99.90;;;;;;4588883;19;20019;-27
2022/10/16 06:51:28;;;;;;;7.22;6.53;;;17.90;99.90;;;;;;4589653;19;19923;-26
2022/10/16 06:52:59;;;;;;;;;;;17.90;99.90;;;;;;4588725;19;20045;-27
2022/10/16 06:54:31;;;;;;;6.55;5.65;;;17.90;99.90;;;;;;4587206;19;19918;-27
2022/10/16 06:56:08;;;;;;;7.60;6.55;;;17.90;99.90;;;;;;4587936;19;20023;-28
2022/10/16 06:57:40;;;;;;;7.10;6.00;;;17.90;99.90;;;;;;4587829;19;20420;-27
2022/10/16 06:59:11;;;;;;;7.60;6.50;;;17.80;99.90;;;;;;4589525;19;20018;-28
2022/10/16 07:00:42;;;;;;;7.35;6.65;;;17.90;99.90;;;;;;4592836;19;20497;-28
2022/10/16 07:02:14;;;;;;;6.93;6.22;;;17.90;99.90;;;;;;4594308;19;20105;-28
2022/10/16 07:03:45;;;;;;;;;;;17.80;99.90;;;;;;4594470;19;20014;-27
2022/10/16 07:05:16;;;;;;;8.23;7.13;;;17.90;99.90;;;;;;4593016;19;20322;-27
2022/10/16 07:06:47;;;;;;;7.93;7.13;;;17.80;99.90;;;;;;4593595;19;20398;-28
2022/10/16 07:08:18;;;;;;;7.38;6.63;;;17.70;99.90;;;;;;4591993;19;20018;-26
2022/10/16 07:09:50;;;;;;;9.00;6.85;;;17.70;99.90;;;;;;4593345;19;20078;-27
2022/10/16 07:11:22;;;;;;;7.50;6.25;;;17.60;99.90;;;;;;4593652;19;20021;-26
2022/10/16 07:12:54;;;;;;;7.28;6.40;;;17.50;99.90;;;;;;4590875;19;20070;-26
2022/10/16 07:14:25;;;;;;;8.25;7.38;;;17.50;99.90;;;;;;4592952;19;20010;-27
2022/10/16 07:15:56;;;;;;;7.07;6.38;;;17.40;99.90;;;;;;4592639;19;20503;-28
2022/10/16 07:17:27;;;;;;;8.00;7.20;;;17.40;99.90;;;;;;4594076;19;20026;-27
2022/10/16 07:18:59;;;;;;;7.97;6.95;;;17.40;99.90;;;;;;4594185;19;20017;-28
2022/10/16 07:20:31;;;;;;;6.20;5.60;;;17.40;99.90;;;;;;4591418;19;20018;-27
2022/10/16 07:22:02;;;;;;;7.97;7.18;;;17.40;99.90;;;;;;4593173;19;20017;-27
2022/10/16 07:23:34;;;;;;;7.63;6.80;;;17.40;99.90;;;;;;4592482;19;20525;-26
2022/10/16 07:25:05;;;;;;;8.02;7.22;;;17.40;99.90;;;;;;4593113;19;20038;-28
2022/10/16 07:26:38;;;;;;;7.50;6.80;;;17.40;99.90;;;;;;4592722;19;20034;-26
2022/10/16 07:28:12;;;;;;;7.70;6.90;;;17.40;99.90;;;;;;4592917;19;20006;-27
2022/10/16 07:29:43;;;;;;;6.78;6.07;;;17.40;99.90;;;;;;4593809;19;20014;-27
2022/10/16 07:31:15;;;;;;;7.60;6.63;;;17.40;99.90;;;;;;4593692;19;20021;-28
2022/10/16 07:32:46;;;;;;;7.95;7.13;;;17.40;99.90;;;;;;4592904;19;20015;-28
2022/10/16 07:34:18;;;;;;;6.28;5.68;;;17.40;99.90;;;;;;4592925;19;20489;-28
2022/10/16 07:35:53;;;;;;;7.28;6.55;;;17.40;99.90;;;;;;4592148;19;20531;-29
2022/10/16 07:37:24;;;;;;;7.10;6.40;;;17.40;99.90;;;;;;4591618;19;20019;-28
2022/10/16 07:38:55;;;;;;;7.57;6.55;;;17.40;99.90;;;;;;4593507;19;20014;-28
2022/10/16 07:40:26;;;;;;;7.07;6.38;;;17.40;99.90;;;;;;4594179;19;20035;-28
2022/10/16 07:41:58;;;;;;;;;;;17.50;99.90;;;;;;4594883;19;20126;-29
2022/10/16 07:43:29;;;;;;;10.18;9.07;;;17.40;99.90;;;;;;4593825;19;19926;-28
2022/10/16 07:45:00;;;;;;;10.98;9.88;;;17.50;99.90;;;;;;4592000;19;20015;-28
2022/10/16 07:46:33;;;;;;;8.80;7.90;;;17.40;99.90;;;;;;4593260;19;20011;-26
2022/10/16 07:48:04;;;;;;;8.27;6.65;;;17.40;99.90;;;;;;4591531;19;20369;-26
2022/10/16 07:49:35;;;;;;;7.78;6.30;;;17.40;99.90;;;;;;4592816;19;20007;-27
2022/10/16 07:51:07;;;;;;;7.15;6.45;;;17.40;99.90;;;;;;4594119;19;20082;-27
2022/10/16 07:52:38;;;;;;;8.32;7.43;;;17.40;99.90;;;;;;4591650;19;20021;-27
2022/10/16 07:54:09;;;;;;;8.43;6.63;;;17.40;99.90;;;;;;4593030;19;20375;-28
2022/10/16 07:55:40;;;;;;;7.93;6.78;;;17.40;99.90;;;;;;4593357;19;20026;-27